Time;durP1;ratioP1;P1;durP2;ratioP2;P2;SDS_P1;SDS_P2;PMS_P1;PMS_P2;Temp;Humidity;BMP_temperature;BMP_pressure;BME280_temperature;BME280_humidity;BME280_pressure;Samples;Min_cycle;Max_cycle;Signal;HPM_P1;HPM_P2
2022/09/12 01:20:43;;;;;;;3.75;3.38;;;;;;;21.85;54.19;101716.09;5682575;23;20064;-83
2022/09/12 01:23:36;;;;;;;3.90;3.50;;;;;;;21.83;53.99;101710.84;4884725;29;20097;-83
2022/09/12 01:38:30;;;;;;;3.10;2.80;;;;;;;21.85;54.16;101711.69;4902989;29;20067;-83
2022/09/12 01:52:27;;;;;;;3.50;3.20;;;;;;;21.86;53.93;101699.47;4898762;29;20389;-82
2022/09/12 02:01:43;;;;;;;;;;;;;;;;;;;;;
2022/09/12 02:07:26;;;;;;;4.47;2.67;;;;;;;21.85;53.82;101677.63;4903677;29;20074;-83
2022/09/12 05:07:58;;;;;;;7.22;3.10;;;;;;;21.85;53.34;101600.78;4921529;29;20059;-80
2022/09/12 05:10:35;;;;;;;11.25;5.15;;;;;;;21.84;53.14;101599.94;4907491;29;20059;-81
2022/09/12 05:21:10;;;;;;;19.17;8.43;;;;;;;21.86;53.31;101582.44;4924128;29;20073;-81
2022/09/12 05:23:51;;;;;;;15.18;7.95;;;;;;;21.81;53.23;101584.25;4921544;29;20144;-80
2022/09/12 06:06:19;;;;;;;10.70;8.13;;;;;;;21.41;52.94;101584.84;5788785;23;20078;-82
2022/09/12 18:13:48;;;;;;;4.72;2.30;;;;;;;22.52;53.09;101190.53;4985522;23;21446;-83
2022/09/12 18:16:15;;;;;;;4.28;2.58;;;;;;;22.53;53.27;101180.91;4878076;29;20048;-82
2022/09/12 18:18:40;;;;;;;4.10;2.63;;;;;;;22.54;53.45;101185.25;4890828;29;20099;-81
2022/09/12 18:21:09;;;;;;;4.40;2.58;;;;;;;22.54;53.69;101186.13;4886375;29;20453;-81
2022/09/12 18:23:35;;;;;;;4.40;2.67;;;;;;;22.54;53.67;101183.50;4903407;29;20057;-84
2022/09/12 18:26:08;;;;;;;6.22;3.40;;;;;;;22.54;53.77;101188.75;4878621;29;20048;-84
2022/09/12 18:28:36;;;;;;;5.63;2.70;;;;;;;22.54;53.91;101193.97;4851884;29;1140158;-83
2022/09/12 18:31:02;;;;;;;8.35;2.80;;;;;;;22.55;53.57;101192.22;4889435;29;20077;-83
2022/09/12 18:33:28;;;;;;;4.70;2.80;;;;;;;22.53;53.99;101189.63;4888824;29;20067;-86
2022/09/12 18:35:53;;;;;;;6.93;2.97;;;;;;;22.54;53.62;101195.75;4875989;29;20496;-84
2022/09/12 18:38:19;;;;;;;4.88;2.65;;;;;;;22.53;54.01;101186.13;4893636;29;20053;-80
2022/09/12 18:40:44;;;;;;;5.43;3.00;;;;;;;22.53;54.35;101179.13;4891953;29;20060;-83
2022/09/12 18:43:10;;;;;;;4.35;3.00;;;;;;;22.53;54.41;101178.28;4897437;29;20058;-83
2022/09/12 18:45:35;;;;;;;7.53;2.90;;;;;;;22.52;53.92;101184.44;4876869;29;20085;-85
2022/09/12 18:48:02;;;;;;;3.65;2.75;;;;;;;22.53;54.18;101178.28;4893103;29;20405;-84
2022/09/12 18:55:50;;;;;;;3.97;2.80;;;;;;;22.52;54.16;101176.56;4905429;29;20103;-83
2022/09/12 18:58:15;;;;;;;5.95;3.00;;;;;;;22.52;54.07;101176.56;4882862;29;20070;-83
2022/09/12 19:00:41;;;;;;;6.70;2.78;;;;;;;22.53;53.96;101178.28;4878948;29;20056;-84
2022/09/12 19:03:06;;;;;;;4.13;3.40;;;;;;;22.50;54.27;101176.59;4885633;29;20049;-83
2022/09/12 19:05:32;;;;;;;4.75;3.22;;;;;;;22.51;54.06;101180.94;4863686;29;20168;-85
2022/09/12 19:07:58;;;;;;;5.18;3.08;;;;;;;22.51;54.11;101190.56;4890828;29;20499;-83
2022/09/12 19:10:23;;;;;;;3.75;3.10;;;;;;;22.51;54.66;101190.56;4873754;29;20520;-85
2022/09/12 19:12:48;;;;;;;5.18;3.83;;;;;;;22.51;54.22;101193.19;4875909;29;20067;-84
2022/09/12 19:15:14;;;;;;;4.53;3.25;;;;;;;22.51;54.26;101196.66;4886616;29;20071;-84
2022/09/12 19:17:39;;;;;;;4.57;3.30;;;;;;;22.49;54.07;101194.97;4872831;29;20119;-83
2022/09/12 19:20:05;;;;;;;4.65;3.03;;;;;;;22.49;54.36;101202.84;4890308;29;20056;-84
2022/09/12 19:22:31;;;;;;;4.78;3.25;;;;;;;22.48;54.15;101196.75;4878365;29;20105;-91
2022/09/12 22:38:26;;;;;;;7.57;6.15;;;;;;;22.53;55.79;101100.44;3141784;23;20049;-86
2022/09/12 22:47:09;;;;;;;8.55;5.35;;;;;;;22.55;55.88;101103.03;4876688;29;20052;-85
2022/09/12 22:49:35;;;;;;;7.28;5.43;;;;;;;22.54;55.71;101102.19;4864026;29;20057;-85
2022/09/12 22:52:23;;;;;;;9.38;5.40;;;;;;;22.55;55.99;101095.16;4852723;29;20137;-84
2022/09/12 22:54:49;;;;;;;6.88;5.28;;;;;;;22.55;55.49;101090.78;4863979;29;20159;-85
2022/09/12 22:57:14;;;;;;;7.75;5.22;;;;;;;22.54;55.75;101096.94;4880745;29;20057;-85
2022/09/12 22:59:42;;;;;;;7.05;5.35;;;;;;;22.56;55.86;101105.63;4881461;29;20057;-84
2022/09/12 23:08:04;;;;;;;9.40;6.05;;;;;;;22.56;55.48;101103.00;4879187;29;20185;-85
2022/09/12 23:10:30;;;;;;;6.03;5.28;;;;;;;22.56;55.85;101102.16;4872489;29;20049;-87
2022/09/12 23:12:56;;;;;;;6.22;5.45;;;;;;;22.56;55.63;101096.91;4878451;29;20064;-86
2022/09/12 23:15:24;;;;;;;6.88;5.53;;;;;;;22.57;55.63;101098.63;4867587;29;20057;-84
2022/09/12 23:17:49;;;;;;;5.72;4.90;;;;;;;22.55;55.54;101084.69;4851985;29;20064;-84
2022/09/12 23:20:15;;;;;;;6.80;4.70;;;;;;;22.55;55.88;101084.69;4889273;29;20048;-84
2022/09/12 23:22:41;;;;;;;8.15;5.50;;;;;;;22.55;55.45;101080.28;4887948;29;20056;-84
2022/09/12 23:25:06;;;;;;;8.57;5.05;;;;;;;22.55;55.72;101077.66;4889569;29;20076;-87
2022/09/12 23:27:32;;;;;;;6.43;4.60;;;;;;;22.55;55.81;101085.53;4889549;29;20049;-85
2022/09/12 23:33:04;;;;;;;6.28;4.93;;;;;;;22.55;55.75;101088.16;4880618;29;20059;-85
2022/09/12 23:35:29;;;;;;;6.28;4.88;;;;;;;22.56;56.09;101094.28;4860311;29;20090;-86
2022/09/12 23:37:55;;;;;;;6.07;4.70;;;;;;;22.57;55.73;101103.88;4861042;29;20060;-85
2022/09/12 23:43:14;;;;;;;7.32;4.50;;;;;;;22.55;55.85;101084.69;4909901;29;20064;-84
2022/09/12 23:45:39;;;;;;;5.90;4.82;;;;;;;22.57;55.75;101088.97;4871751;29;20058;-86
2022/09/12 23:48:07;;;;;;;4.82;4.30;;;;;;;22.56;56.10;101084.66;4872049;29;20499;-86
2022/09/12 23:50:33;;;;;;;5.78;4.80;;;;;;;22.57;55.81;101077.63;4869552;29;20068;-86
2022/09/12 23:53:01;;;;;;;5.07;4.53;;;;;;;22.56;55.81;101081.16;4885056;29;20056;-86
2022/09/12 23:55:27;;;;;;;6.88;4.63;;;;;;;22.57;55.99;101082.88;4885942;29;20053;-84
